createdAt,value
2019-03-04T00:01:49.402Z,4.63
2019-03-04T00:04:18.693Z,5.07
2019-03-04T00:06:48.012Z,4.80
2019-03-04T00:09:17.340Z,4.37
2019-03-04T00:11:46.677Z,5.87
2019-03-04T00:14:16.010Z,5.20
2019-03-04T00:16:45.527Z,5.53
2019-03-04T00:19:14.789Z,5.40
2019-03-04T00:21:44.134Z,5.83
2019-03-04T00:24:13.675Z,6.00
2019-03-04T00:26:42.954Z,5.60
2019-03-04T00:29:12.245Z,5.53
2019-03-04T00:31:41.816Z,6.43
2019-03-04T00:34:11.093Z,6.20
2019-03-04T00:36:40.422Z,5.83
2019-03-04T00:39:11.768Z,5.50
2019-03-04T00:41:41.002Z,6.30
2019-03-04T00:44:10.290Z,5.80
2019-03-04T00:46:39.796Z,5.90
2019-03-04T00:49:09.158Z,6.70
2019-03-04T00:51:38.472Z,6.73
2019-03-04T00:54:07.921Z,6.87
2019-03-04T00:56:37.282Z,7.33
2019-03-04T00:59:06.641Z,7.13
2019-03-04T01:01:36.028Z,6.33
2019-03-04T01:04:05.337Z,6.37
2019-03-04T01:06:34.652Z,6.67
2019-03-04T01:09:04.311Z,6.20
2019-03-04T01:11:33.594Z,6.70
2019-03-04T01:14:02.883Z,7.13
2019-03-04T01:16:34.218Z,7.00
2019-03-04T01:19:03.562Z,6.53
2019-03-04T01:21:32.919Z,6.47
2019-03-04T01:24:02.370Z,6.73
2019-03-04T01:26:31.689Z,6.40
2019-03-04T01:29:00.957Z,6.37
2019-03-04T01:31:30.428Z,6.13
2019-03-04T01:33:59.692Z,5.87
2019-03-04T01:36:29.016Z,6.10
2019-03-04T01:38:58.471Z,5.37
2019-03-04T01:41:27.778Z,4.87
2019-03-04T01:43:57.109Z,4.57
2019-03-04T01:46:26.465Z,4.30
2019-03-04T01:48:55.740Z,4.17
2019-03-04T01:51:25.033Z,3.80
2019-03-04T01:53:54.375Z,3.90
2019-03-04T01:56:23.635Z,3.93
2019-03-04T01:58:52.927Z,3.50
2019-03-04T02:01:22.321Z,4.23
2019-03-04T02:03:51.665Z,4.30
2019-03-04T02:06:20.968Z,4.63
2019-03-04T02:08:50.214Z,4.00
2019-03-04T02:11:19.522Z,4.30
2019-03-04T02:13:48.897Z,4.77
2019-03-04T02:16:18.376Z,4.67
2019-03-04T02:18:47.666Z,4.30
2019-03-04T02:21:16.960Z,3.93
2019-03-04T02:23:46.397Z,3.80
2019-03-04T02:26:32.301Z,3.53
2019-03-04T02:29:01.712Z,3.50
2019-03-04T02:31:31.067Z,3.50
2019-03-04T02:34:00.472Z,3.47
2019-03-04T02:36:30.140Z,3.43
2019-03-04T02:38:59.434Z,2.67
2019-03-04T02:41:28.667Z,3.37
2019-03-04T02:43:57.966Z,2.67
2019-03-04T02:46:27.267Z,3.30
2019-03-04T02:48:56.611Z,4.30
2019-03-04T02:51:25.957Z,3.77
2019-03-04T02:53:55.250Z,3.83
2019-03-04T02:56:24.594Z,4.20
2019-03-04T02:58:53.980Z,4.40
2019-03-04T03:01:23.295Z,5.17
2019-03-04T03:03:52.552Z,5.10
2019-03-04T03:06:22.036Z,5.13
2019-03-04T03:08:51.422Z,5.33
2019-03-04T03:11:20.750Z,4.80
2019-03-04T03:13:50.252Z,4.47
2019-03-04T03:16:19.601Z,3.43
2019-03-04T03:18:48.875Z,2.60
2019-03-04T03:21:18.109Z,2.77
2019-03-04T03:23:47.380Z,2.53
2019-03-04T03:26:16.705Z,2.50
2019-03-04T03:28:46.485Z,2.90
2019-03-04T03:31:15.785Z,3.00
2019-03-04T03:33:45.031Z,3.50
2019-03-04T03:36:14.466Z,2.60
2019-03-04T03:38:43.821Z,3.33
2019-03-04T03:41:13.139Z,2.80
2019-03-04T03:43:42.701Z,3.63
2019-03-04T03:46:12.016Z,3.23
2019-03-04T03:48:41.280Z,3.80
2019-03-04T03:51:10.814Z,3.67
2019-03-04T03:53:39.995Z,4.00
2019-03-04T03:56:09.294Z,3.83
2019-03-04T03:58:39.002Z,4.10
2019-03-04T04:01:08.295Z,4.67
2019-03-04T04:03:37.607Z,5.17
2019-03-04T04:06:07.188Z,6.07
2019-03-04T04:08:36.514Z,6.40
2019-03-04T04:11:05.768Z,7.13
2019-03-04T04:13:35.115Z,8.60
2019-03-04T04:16:04.430Z,8.90
2019-03-04T04:18:33.749Z,9.60
2019-03-04T04:21:03.138Z,9.33
2019-03-04T04:23:32.472Z,9.63
2019-03-04T04:26:01.772Z,10.60
2019-03-04T04:28:32.099Z,10.50
2019-03-04T04:31:01.466Z,10.87
2019-03-04T04:33:30.759Z,10.00
2019-03-04T04:36:00.110Z,9.40
2019-03-04T04:38:29.439Z,10.13
2019-03-04T04:40:58.718Z,10.30
2019-03-04T04:43:28.053Z,9.63
2019-03-04T04:45:57.382Z,10.80
2019-03-04T04:48:26.672Z,11.10
2019-03-04T04:50:56.017Z,12.83
2019-03-04T04:53:25.348Z,14.10
2019-03-04T04:55:54.682Z,15.90
2019-03-04T04:58:23.949Z,15.90
2019-03-04T05:00:53.197Z,19.33
2019-03-04T05:03:22.588Z,21.53
2019-03-04T05:05:52.107Z,24.10
2019-03-04T05:08:21.452Z,24.50
2019-03-04T05:10:50.773Z,23.47
2019-03-04T05:13:20.123Z,23.50
2019-03-04T05:15:49.429Z,22.17
2019-03-04T05:18:18.699Z,24.80
2019-03-04T05:20:48.167Z,26.03
2019-03-04T05:23:17.497Z,29.97
2019-03-04T05:25:46.787Z,29.37
2019-03-04T05:28:16.171Z,27.73
2019-03-04T05:30:45.505Z,30.30
2019-03-04T05:33:14.841Z,29.50
2019-03-04T05:35:44.177Z,31.00
2019-03-04T05:38:13.494Z,29.40
2019-03-04T05:40:42.777Z,28.63
2019-03-04T05:43:12.140Z,28.87
2019-03-04T05:45:41.452Z,28.97
2019-03-04T05:48:10.789Z,29.17
2019-03-04T05:50:40.131Z,28.97
2019-03-04T05:53:09.506Z,32.90
2019-03-04T05:55:38.790Z,28.73
2019-03-04T05:58:08.127Z,29.07
2019-03-04T06:00:40.112Z,30.93
2019-03-04T06:03:09.996Z,30.73
2019-03-04T06:05:39.348Z,28.80
2019-03-04T06:08:09.414Z,28.83
2019-03-04T06:10:38.777Z,25.53
2019-03-04T06:13:08.077Z,28.57
2019-03-04T06:15:37.323Z,25.53
2019-03-04T06:18:06.711Z,23.83
2019-03-04T06:20:36.108Z,25.73
2019-03-04T06:23:05.451Z,24.80
2019-03-04T06:25:34.832Z,23.73
2019-03-04T06:28:04.087Z,25.43
2019-03-04T06:30:33.552Z,24.30
2019-03-04T06:33:03.092Z,23.00
2019-03-04T06:35:32.395Z,22.10
2019-03-04T06:38:01.768Z,21.37
2019-03-04T06:40:31.078Z,22.47
2019-03-04T06:43:00.403Z,21.17
2019-03-04T06:45:29.742Z,20.03
2019-03-04T06:47:59.098Z,22.17
2019-03-04T06:50:51.062Z,23.27
2019-03-04T06:53:24.596Z,22.37
2019-03-04T06:56:08.989Z,23.13
2019-03-04T06:58:41.067Z,22.57
2019-03-04T07:01:17.607Z,19.77
2019-03-04T07:04:01.845Z,21.70
2019-03-04T07:06:31.168Z,20.67
2019-03-04T07:09:15.547Z,19.60
2019-03-04T07:11:45.984Z,17.40
2019-03-04T07:14:15.299Z,17.63
2019-03-04T07:16:45.258Z,17.20
2019-03-04T07:19:19.047Z,17.30
2019-03-04T07:21:48.726Z,16.40
2019-03-04T07:24:18.060Z,16.83
2019-03-04T07:26:47.470Z,16.70
2019-03-04T07:29:16.838Z,15.80
2019-03-04T07:31:46.121Z,16.27
2019-03-04T07:34:15.486Z,15.77
2019-03-04T07:36:44.888Z,14.80
2019-03-04T07:39:18.419Z,15.30
2019-03-04T07:41:49.449Z,14.03
2019-03-04T07:44:18.733Z,13.50
2019-03-04T07:46:48.038Z,14.63
2019-03-04T07:49:17.440Z,13.93
2019-03-04T07:51:46.783Z,11.97
2019-03-04T07:54:16.104Z,12.73
2019-03-04T07:56:45.387Z,12.03
2019-03-04T07:59:14.641Z,11.50
2019-03-04T08:01:44.060Z,11.60
2019-03-04T08:04:13.429Z,11.80
2019-03-04T08:06:42.686Z,11.73
2019-03-04T08:09:55.564Z,10.80
2019-03-04T08:12:54.721Z,9.77
2019-03-04T08:15:24.106Z,9.93
2019-03-04T08:17:53.479Z,9.77
2019-03-04T08:20:22.824Z,10.70
2019-03-04T08:22:52.050Z,8.60
2019-03-04T08:25:21.315Z,9.33
2019-03-04T08:27:50.626Z,8.60
2019-03-04T08:30:21.901Z,8.80
2019-03-04T08:32:51.196Z,8.00
2019-03-04T08:35:20.671Z,9.23
2019-03-04T08:37:50.152Z,9.00
2019-03-04T08:40:19.702Z,9.30
2019-03-04T08:42:49.055Z,9.33
2019-03-04T08:45:20.120Z,10.57
2019-03-04T08:47:49.427Z,10.77
2019-03-04T08:50:18.910Z,10.43
2019-03-04T08:52:48.347Z,11.47
2019-03-04T08:55:17.873Z,10.53
2019-03-04T08:57:47.193Z,10.83
2019-03-04T09:00:19.104Z,9.80
2019-03-04T09:02:48.532Z,9.60
2019-03-04T09:05:17.823Z,9.70
2019-03-04T09:07:47.528Z,9.67
2019-03-04T09:10:27.883Z,10.60
2019-03-04T09:12:57.410Z,10.67
2019-03-04T09:15:26.712Z,10.07
2019-03-04T09:17:55.984Z,10.23
2019-03-04T09:20:25.709Z,10.30
2019-03-04T09:22:55.465Z,10.97
2019-03-04T09:25:43.266Z,10.13
2019-03-04T09:28:12.561Z,10.23
2019-03-04T09:30:41.854Z,10.70
2019-03-04T09:33:11.159Z,10.03
2019-03-04T09:35:40.427Z,9.43
2019-03-04T09:38:09.678Z,8.97
2019-03-04T09:40:39.533Z,9.87
2019-03-04T09:43:08.894Z,8.60
2019-03-04T09:45:39.347Z,9.43
2019-03-04T09:48:09.011Z,9.20
2019-03-04T09:50:38.312Z,9.03
2019-03-04T09:53:07.771Z,8.63
2019-03-04T09:55:37.344Z,8.27
2019-03-04T09:58:06.621Z,8.90
2019-03-04T10:01:13.063Z,8.73
2019-03-04T10:04:28.886Z,8.83
2019-03-04T10:07:19.456Z,7.63
2019-03-04T10:10:28.628Z,6.93
2019-03-04T10:13:49.952Z,6.60
2019-03-04T10:16:27.499Z,6.17
2019-03-04T10:19:52.431Z,7.60
2019-03-04T10:22:47.069Z,5.63
2019-03-04T10:25:41.177Z,6.27
2019-03-04T10:29:03.229Z,5.80
2019-03-04T10:31:57.627Z,6.23
2019-03-04T10:34:56.196Z,6.40
2019-03-04T10:38:02.719Z,6.93
2019-03-04T10:40:51.599Z,6.33
2019-03-04T10:44:00.542Z,6.60
2019-03-04T10:46:58.734Z,6.80
2019-03-04T10:49:29.712Z,7.10
2019-03-04T10:51:58.959Z,10.97
2019-03-04T10:54:28.229Z,7.10
2019-03-04T10:56:57.544Z,8.33
2019-03-04T10:59:26.882Z,8.03
2019-03-04T11:01:56.183Z,6.67
2019-03-04T11:04:25.639Z,7.87
2019-03-04T11:06:55.090Z,7.93
2019-03-04T11:09:24.348Z,7.70
2019-03-04T11:11:53.626Z,6.50
2019-03-04T11:14:22.903Z,6.83
2019-03-04T11:16:52.145Z,6.80
2019-03-04T11:19:21.532Z,7.00
2019-03-04T11:21:50.853Z,7.17
2019-03-04T11:24:20.373Z,6.83
2019-03-04T11:26:49.706Z,7.17
2019-03-04T11:29:18.993Z,6.90
2019-03-04T11:31:48.280Z,6.30
2019-03-04T11:34:17.642Z,7.30
2019-03-04T11:36:46.912Z,7.00
2019-03-04T11:39:22.593Z,7.73
2019-03-04T11:41:51.864Z,6.93
2019-03-04T11:44:21.204Z,7.10
2019-03-04T11:46:50.734Z,6.73
2019-03-04T11:49:20.051Z,6.37
2019-03-04T11:51:49.402Z,7.13
2019-03-04T11:54:18.777Z,6.80
2019-03-04T11:56:48.092Z,6.97
2019-03-04T11:59:17.340Z,6.50
2019-03-04T12:01:49.138Z,7.00
2019-03-04T12:04:18.440Z,6.17
2019-03-04T12:06:47.719Z,6.17
2019-03-04T12:09:17.227Z,6.90
2019-03-04T12:11:46.603Z,6.40
2019-03-04T12:14:15.937Z,5.57
2019-03-04T12:16:45.295Z,6.17
2019-03-04T12:19:14.540Z,5.70
2019-03-04T12:21:43.865Z,6.50
2019-03-04T12:24:13.173Z,5.93
2019-03-04T12:26:43.964Z,5.27
2019-03-04T12:29:13.357Z,5.43
2019-03-04T12:32:05.446Z,5.63
2019-03-04T12:34:34.856Z,4.83
2019-03-04T12:37:04.236Z,6.10
2019-03-04T12:39:33.615Z,4.93
2019-03-04T12:42:02.874Z,5.53
2019-03-04T12:44:32.138Z,5.57
2019-03-04T12:47:01.473Z,5.53
2019-03-04T12:49:30.775Z,5.40
2019-03-04T12:52:00.204Z,4.77
2019-03-04T12:54:29.630Z,5.53
2019-03-04T12:56:58.914Z,5.53
2019-03-04T12:59:28.161Z,5.77
2019-03-04T13:01:57.486Z,4.80
2019-03-04T13:04:26.848Z,4.10
2019-03-04T13:06:56.133Z,2.63
2019-03-04T13:09:25.574Z,2.20
2019-03-04T13:11:54.864Z,1.80
2019-03-04T13:14:24.121Z,1.77
2019-03-04T13:16:53.392Z,1.40
2019-03-04T13:19:22.729Z,1.80
2019-03-04T13:21:52.082Z,1.80
2019-03-04T13:24:21.621Z,1.30
2019-03-04T13:26:51.011Z,1.47
2019-03-04T13:29:20.290Z,1.40
2019-03-04T13:31:49.764Z,1.20
2019-03-04T13:34:19.025Z,1.40
2019-03-04T13:36:48.305Z,1.10
2019-03-04T13:39:17.878Z,1.30
2019-03-04T13:41:47.195Z,1.60
2019-03-04T13:44:16.533Z,1.90
2019-03-04T13:46:45.910Z,1.70
2019-03-04T13:49:15.170Z,1.40
2019-03-04T13:51:44.494Z,2.10
2019-03-04T13:54:13.932Z,1.07
2019-03-04T13:56:43.170Z,1.00
2019-03-04T13:59:12.475Z,1.00
2019-03-04T14:01:41.834Z,1.03
2019-03-04T14:04:11.123Z,1.00
2019-03-04T14:06:40.483Z,0.60
2019-03-04T14:09:10.370Z,1.00
2019-03-04T14:11:39.587Z,1.00
2019-03-04T14:14:08.862Z,0.70
2019-03-04T14:16:38.251Z,0.60
2019-03-04T14:19:07.560Z,0.80
2019-03-04T14:21:36.888Z,0.80
2019-03-04T14:24:06.226Z,0.50
2019-03-04T14:26:35.608Z,0.90
2019-03-04T14:29:04.886Z,0.60
2019-03-04T14:31:34.176Z,0.83
2019-03-04T14:34:03.424Z,0.70
2019-03-04T14:36:32.721Z,0.60
2019-03-04T14:39:02.329Z,0.90
2019-03-04T14:41:31.668Z,0.80
2019-03-04T14:44:00.992Z,0.90
2019-03-04T14:46:30.378Z,1.00
2019-03-04T14:48:59.616Z,0.73
2019-03-04T14:51:28.940Z,0.90
2019-03-04T14:53:58.192Z,0.80
2019-03-04T14:56:27.483Z,1.13
2019-03-04T14:59:10.210Z,1.20
2019-03-04T15:01:28.079Z,1.10
2019-03-04T15:03:57.432Z,0.80
2019-03-04T15:06:26.752Z,0.90
2019-03-04T15:08:56.208Z,1.30
2019-03-04T15:11:25.468Z,1.20
2019-03-04T15:13:54.689Z,1.53
2019-03-04T15:16:24.215Z,1.30
2019-03-04T15:18:53.570Z,1.47
2019-03-04T15:21:22.868Z,1.67
2019-03-04T15:23:52.359Z,1.53
2019-03-04T15:26:21.750Z,1.97
2019-03-04T15:28:51.029Z,2.10
2019-03-04T15:31:20.294Z,3.60
2019-03-04T15:33:49.568Z,3.87
2019-03-04T15:36:18.832Z,2.43
2019-03-04T15:38:48.329Z,2.63
2019-03-04T15:41:17.674Z,2.30
2019-03-04T15:43:46.964Z,2.80
2019-03-04T15:46:16.350Z,2.30
2019-03-04T15:48:45.659Z,1.80
2019-03-04T15:51:15.006Z,2.30
2019-03-04T15:53:44.386Z,2.60
2019-03-04T15:56:13.656Z,1.90
2019-03-04T15:58:42.869Z,1.37
2019-03-04T16:01:13.242Z,1.20
2019-03-04T16:03:42.550Z,0.90
2019-03-04T16:06:11.881Z,1.00
2019-03-04T16:08:41.369Z,0.80
2019-03-04T16:11:10.861Z,1.13
2019-03-04T16:13:40.236Z,1.00
2019-03-04T16:16:09.716Z,0.73
2019-03-04T16:18:39.058Z,0.90
2019-03-04T16:21:08.337Z,0.80
2019-03-04T16:23:37.622Z,1.03
2019-03-04T16:26:12.665Z,1.23
2019-03-04T16:28:42.552Z,1.20
2019-03-04T16:31:11.923Z,1.37
2019-03-04T16:33:41.255Z,1.80
2019-03-04T16:36:10.532Z,1.40
2019-03-04T16:38:39.805Z,1.13
2019-03-04T16:41:09.389Z,1.70
2019-03-04T16:43:38.644Z,1.30
2019-03-04T16:46:07.991Z,1.60
2019-03-04T16:48:37.304Z,1.20
2019-03-04T16:51:06.729Z,1.80
2019-03-04T16:53:36.202Z,1.60
2019-03-04T16:56:05.559Z,1.20
2019-03-04T16:58:36.298Z,1.30
2019-03-04T17:01:06.221Z,1.30
2019-03-04T17:03:35.594Z,1.50
2019-03-04T17:06:05.140Z,1.77
2019-03-04T17:08:34.407Z,1.67
2019-03-04T17:11:03.650Z,1.60
2019-03-04T17:13:32.918Z,1.47
2019-03-04T17:16:02.444Z,1.70
2019-03-04T17:18:31.739Z,1.30
2019-03-04T17:21:01.564Z,1.50
2019-03-04T17:23:30.892Z,1.30
2019-03-04T17:26:00.156Z,1.53
2019-03-04T17:28:29.426Z,1.40
2019-03-04T17:30:58.702Z,1.33
2019-03-04T17:33:28.023Z,1.50
2019-03-04T17:35:57.391Z,1.50
2019-03-04T17:38:26.694Z,1.70
2019-03-04T17:40:56.046Z,1.60
2019-03-04T17:43:25.652Z,1.60
2019-03-04T17:45:54.990Z,1.40
2019-03-04T17:48:24.291Z,1.50
2019-03-04T17:50:53.687Z,1.80
2019-03-04T17:53:22.944Z,1.60
2019-03-04T17:55:52.235Z,1.67
2019-03-04T17:58:21.688Z,2.10
2019-03-04T18:00:54.614Z,1.50
2019-03-04T18:03:24.114Z,1.70
2019-03-04T18:05:53.651Z,1.70
2019-03-04T18:08:22.888Z,1.57
2019-03-04T18:10:52.312Z,2.37
2019-03-04T18:13:21.611Z,5.80
2019-03-04T18:15:50.871Z,6.23
2019-03-04T18:18:20.200Z,4.70
2019-03-04T18:20:49.529Z,5.37
2019-03-04T18:23:18.823Z,9.43
2019-03-04T18:25:57.532Z,4.70
2019-03-04T18:29:02.017Z,10.17
2019-03-04T18:32:02.849Z,13.13
2019-03-04T18:34:43.172Z,10.37
2019-03-04T18:37:44.496Z,5.67
2019-03-04T18:40:51.191Z,12.23
2019-03-04T18:43:47.298Z,4.60
2019-03-04T18:47:00.582Z,4.13
2019-03-04T18:49:30.031Z,4.23
2019-03-04T18:51:59.392Z,3.87
2019-03-04T18:54:28.689Z,2.70
2019-03-04T18:56:58.139Z,2.90
2019-03-04T18:59:27.480Z,2.50
2019-03-04T19:01:56.797Z,3.60
2019-03-04T19:04:26.162Z,3.20
2019-03-04T19:06:55.431Z,3.70
2019-03-04T19:09:24.668Z,3.83
2019-03-04T19:11:54.058Z,3.40
2019-03-04T19:14:23.392Z,3.87
2019-03-04T19:16:52.929Z,3.90
2019-03-04T19:19:22.203Z,4.30
2019-03-04T19:21:51.520Z,4.40
2019-03-04T19:24:20.793Z,4.50
2019-03-04T19:26:50.030Z,4.23
2019-03-04T19:29:19.350Z,4.40
2019-03-04T19:31:48.772Z,4.20
2019-03-04T19:34:18.170Z,4.70
2019-03-04T19:36:47.640Z,5.70
2019-03-04T19:39:16.969Z,5.60
2019-03-04T19:41:46.436Z,4.63
2019-03-04T19:44:15.722Z,4.50
2019-03-04T19:46:45.023Z,4.20
2019-03-04T19:49:14.458Z,2.93
2019-03-04T19:51:43.776Z,2.40
2019-03-04T19:54:13.579Z,3.07
2019-03-04T19:56:42.909Z,3.00
2019-03-04T19:59:12.175Z,2.13
2019-03-04T20:01:41.546Z,2.50
2019-03-04T20:04:10.944Z,2.00
2019-03-04T20:06:40.312Z,1.10
2019-03-04T20:09:10.255Z,1.97
2019-03-04T20:11:39.511Z,1.13
2019-03-04T20:14:08.792Z,1.27
2019-03-04T20:16:38.049Z,1.53
2019-03-04T20:19:07.344Z,1.07
2019-03-04T20:21:36.692Z,1.33
2019-03-04T20:24:06.131Z,1.20
2019-03-04T20:26:35.642Z,1.03
2019-03-04T20:29:04.954Z,1.30
2019-03-04T20:31:34.192Z,1.30
2019-03-04T20:34:03.573Z,1.40
2019-03-04T20:36:32.888Z,1.50
2019-03-04T20:39:02.165Z,1.70
2019-03-04T20:41:31.491Z,1.13
2019-03-04T20:44:00.831Z,1.00
2019-03-04T20:46:30.152Z,1.20
2019-03-04T20:48:59.555Z,1.20
2019-03-04T20:51:28.831Z,1.23
2019-03-04T20:53:58.045Z,1.50
2019-03-04T20:56:27.403Z,1.00
2019-03-04T20:58:56.693Z,1.20
2019-03-04T21:01:26.212Z,0.93
2019-03-04T21:03:55.503Z,1.37
2019-03-04T21:06:24.762Z,1.27
2019-03-04T21:08:54.077Z,1.10
2019-03-04T21:11:23.374Z,0.70
2019-03-04T21:13:52.681Z,0.97
2019-03-04T21:16:22.028Z,1.30
2019-03-04T21:18:51.345Z,1.00
2019-03-04T21:21:20.688Z,1.10
2019-03-04T21:23:49.993Z,1.00
2019-03-04T21:26:27.727Z,1.10
2019-03-04T21:29:37.289Z,0.97
2019-03-04T21:32:21.253Z,1.30
2019-03-04T21:35:37.361Z,1.40
2019-03-04T21:38:06.815Z,1.73
2019-03-04T21:40:55.460Z,1.50
2019-03-04T21:43:29.871Z,0.90
2019-03-04T21:46:41.591Z,1.20
2019-03-04T21:49:13.057Z,1.13
2019-03-04T21:52:20.219Z,1.27
2019-03-04T21:54:43.793Z,1.10
2019-03-04T21:57:40.365Z,1.20
2019-03-04T22:00:14.150Z,1.13
2019-03-04T22:02:54.000Z,1.30
2019-03-04T22:05:23.395Z,1.20
2019-03-04T22:07:52.714Z,1.10
2019-03-04T22:10:22.065Z,1.10
2019-03-04T22:12:51.574Z,1.10
2019-03-04T22:15:20.916Z,1.50
2019-03-04T22:17:50.262Z,1.47
2019-03-04T22:20:19.750Z,1.33
2019-03-04T22:22:49.060Z,1.20
2019-03-04T22:25:18.309Z,1.43
2019-03-04T22:27:47.914Z,1.20
2019-03-04T22:30:17.604Z,1.20
2019-03-04T22:32:46.884Z,1.67
2019-03-04T22:35:17.435Z,1.40
2019-03-04T22:37:47.020Z,1.97
2019-03-04T22:40:17.895Z,2.00
2019-03-04T22:42:47.122Z,2.47
2019-03-04T22:45:17.632Z,2.30
2019-03-04T22:47:47.448Z,1.90
2019-03-04T22:50:17.278Z,2.00
2019-03-04T22:52:46.617Z,1.80
2019-03-04T22:55:18.422Z,1.87
2019-03-04T22:57:47.701Z,2.23
2019-03-04T23:01:16.177Z,2.00
2019-03-04T23:03:45.730Z,1.80
2019-03-04T23:06:19.723Z,2.17
2019-03-04T23:08:49.003Z,1.80
2019-03-04T23:11:19.132Z,2.20
2019-03-04T23:14:12.832Z,2.13
2019-03-04T23:16:42.094Z,1.83
2019-03-04T23:19:11.429Z,2.30
2019-03-04T23:21:40.782Z,1.67
2019-03-04T23:24:10.101Z,1.37
2019-03-04T23:26:39.390Z,1.60
2019-03-04T23:29:08.695Z,1.17
2019-03-04T23:31:38.015Z,1.50
2019-03-04T23:34:07.340Z,1.33
2019-03-04T23:36:36.921Z,1.20
2019-03-04T23:39:08.587Z,1.17
2019-03-04T23:41:38.135Z,1.53
2019-03-04T23:44:07.457Z,1.30
2019-03-04T23:46:36.752Z,1.63
2019-03-04T23:49:06.181Z,1.60
2019-03-04T23:51:35.491Z,1.40
2019-03-04T23:54:04.807Z,1.37
2019-03-04T23:56:34.312Z,1.20
2019-03-04T23:59:03.572Z,1.27
